createdAt,value
2019-03-25T00:00:02.280Z,101785.43
2019-03-25T00:02:30.967Z,101774.41
2019-03-25T00:04:59.624Z,101767.50
2019-03-25T00:07:28.516Z,101767.32
2019-03-25T00:09:57.217Z,101755.81
2019-03-25T00:12:25.841Z,101752.69
2019-03-25T00:14:54.507Z,101736.55
2019-03-25T00:17:23.243Z,101735.14
2019-03-25T00:19:51.858Z,101727.61
2019-03-25T00:22:20.573Z,101722.75
2019-03-25T00:24:49.423Z,101713.19
2019-03-25T00:27:18.118Z,101712.14
2019-03-25T00:29:46.842Z,101706.66
2019-03-25T00:32:15.465Z,101709.27
2019-03-25T00:34:44.287Z,101695.80
2019-03-25T00:37:12.920Z,101689.59
2019-03-25T00:39:41.632Z,101691.56
2019-03-25T00:42:10.359Z,101687.03
2019-03-25T00:44:39.079Z,101667.64
2019-03-25T00:47:07.751Z,101679.42
2019-03-25T00:49:36.369Z,101673.25
2019-03-25T00:52:05.112Z,101671.22
2019-03-25T00:54:33.773Z,101661.80
2019-03-25T00:57:02.453Z,101655.28
2019-03-25T00:59:31.163Z,101656.41
2019-03-25T01:01:59.923Z,101650.72
2019-03-25T01:04:28.603Z,101641.52
2019-03-25T01:06:57.250Z,101637.02
2019-03-25T01:09:25.945Z,101630.64
2019-03-25T01:11:54.614Z,101625.27
2019-03-25T01:14:23.346Z,101628.48
2019-03-25T01:16:52.075Z,101626.02
2019-03-25T01:19:20.757Z,101616.33
2019-03-25T01:21:49.562Z,101625.23
2019-03-25T01:24:18.272Z,101614.31
2019-03-25T01:26:47.123Z,101620.86
2019-03-25T01:29:15.862Z,101615.70
2019-03-25T01:31:44.509Z,101602.92
2019-03-25T01:34:13.168Z,101600.97
2019-03-25T01:36:42.019Z,101592.00
2019-03-25T01:39:10.723Z,101585.08
2019-03-25T01:41:39.397Z,101587.55
2019-03-25T01:44:08.137Z,101582.81
2019-03-25T01:46:36.955Z,101585.59
2019-03-25T01:49:06.405Z,101612.55
2019-03-25T01:51:35.039Z,101557.75
2019-03-25T01:54:03.748Z,101635.89
2019-03-25T01:56:32.480Z,101660.75
2019-03-25T01:59:01.295Z,101656.59
2019-03-25T02:01:29.992Z,101676.98
2019-03-25T02:03:58.737Z,101688.19
2019-03-25T02:06:27.385Z,101696.02
2019-03-25T02:08:56.120Z,101688.15
2019-03-25T02:11:24.949Z,101684.31
2019-03-25T02:13:53.646Z,101681.30
2019-03-25T02:16:22.205Z,101684.05
2019-03-25T02:18:50.967Z,101677.63
2019-03-25T02:21:19.726Z,101679.08
2019-03-25T02:23:48.372Z,101680.20
2019-03-25T02:26:17.141Z,101672.62
2019-03-25T02:28:45.910Z,101672.07
2019-03-25T02:31:14.527Z,101668.63
2019-03-25T02:33:43.175Z,101664.44
2019-03-25T02:36:11.872Z,101637.65
2019-03-25T02:38:40.622Z,101641.95
2019-03-25T02:41:09.296Z,101633.36
2019-03-25T02:43:37.885Z,101630.02
2019-03-25T02:46:06.645Z,101611.05
2019-03-25T02:48:35.455Z,101588.23
2019-03-25T02:51:05.102Z,101596.66
2019-03-25T02:53:33.859Z,101588.23
2019-03-25T02:56:02.700Z,101603.19
2019-03-25T02:58:31.360Z,101598.33
2019-03-25T03:01:00.073Z,101599.34
2019-03-25T03:03:28.880Z,101596.43
2019-03-25T03:05:57.543Z,101598.55
2019-03-25T03:08:26.273Z,101602.00
2019-03-25T03:10:54.891Z,101597.30
2019-03-25T03:13:23.611Z,101598.75
2019-03-25T03:15:52.301Z,101605.58
2019-03-25T03:18:21.042Z,101618.38
2019-03-25T03:20:49.807Z,101605.31
2019-03-25T03:23:18.504Z,101602.27
2019-03-25T03:25:57.352Z,101610.89
2019-03-25T03:28:17.583Z,101611.59
2019-03-25T03:30:46.334Z,101605.80
2019-03-25T03:33:15.041Z,101617.53
2019-03-25T03:35:46.374Z,101615.61
2019-03-25T03:38:14.060Z,101609.47
2019-03-25T03:40:42.770Z,101610.31
2019-03-25T03:43:11.571Z,101603.05
2019-03-25T03:45:40.306Z,101603.55
2019-03-25T03:48:09.149Z,101598.91
2019-03-25T03:50:38.111Z,101590.94
2019-03-25T03:53:06.931Z,101592.77
2019-03-25T03:55:37.135Z,101595.07
2019-03-25T03:58:08.431Z,101592.60
2019-03-25T04:00:37.340Z,101585.09
2019-03-25T04:03:06.118Z,101586.09
2019-03-25T04:05:34.839Z,101594.61
2019-03-25T04:08:03.607Z,101585.63
2019-03-25T04:10:32.350Z,101587.34
2019-03-25T04:13:01.043Z,101587.26
2019-03-25T04:15:31.926Z,101588.34
2019-03-25T04:18:00.714Z,101583.07
2019-03-25T04:20:29.451Z,101581.94
2019-03-25T04:22:58.242Z,101583.16
2019-03-25T04:25:26.968Z,101582.62
2019-03-25T04:27:55.822Z,101580.02
2019-03-25T04:30:24.543Z,101579.74
2019-03-25T04:32:53.277Z,101577.65
2019-03-25T04:35:21.926Z,101578.23
2019-03-25T04:37:50.793Z,101588.80
2019-03-25T04:40:19.527Z,101578.41
2019-03-25T04:42:48.211Z,101570.30
2019-03-25T04:45:16.943Z,101567.29
2019-03-25T04:47:45.627Z,101569.33
2019-03-25T04:50:14.543Z,101571.30
2019-03-25T04:52:43.287Z,101569.71
2019-03-25T04:55:12.104Z,101599.23
2019-03-25T04:57:40.839Z,101572.05
2019-03-25T05:00:10.696Z,101570.22
2019-03-25T05:02:39.467Z,101575.69
2019-03-25T05:05:09.630Z,101571.80
2019-03-25T05:07:38.740Z,101564.82
2019-03-25T05:10:09.863Z,101566.28
2019-03-25T05:12:38.565Z,101567.41
2019-03-25T05:15:07.886Z,101560.94
2019-03-25T05:17:36.543Z,101560.80
2019-03-25T05:20:06.698Z,101557.19
2019-03-25T05:22:35.420Z,101554.13
2019-03-25T05:25:06.847Z,101558.84
2019-03-25T05:27:35.473Z,101562.14
2019-03-25T05:30:06.771Z,101555.19
2019-03-25T05:32:35.585Z,101552.58
2019-03-25T05:35:07.120Z,101559.33
2019-03-25T05:37:35.776Z,101477.80
2019-03-25T05:40:05.346Z,101546.96
2019-03-25T05:42:34.025Z,101520.98
2019-03-25T05:45:02.903Z,101552.98
2019-03-25T05:47:31.606Z,101577.45
2019-03-25T05:50:00.410Z,101560.95
2019-03-25T05:52:29.058Z,101560.95
2019-03-25T05:54:57.767Z,101546.22
2019-03-25T05:57:26.495Z,101550.53
2019-03-25T05:59:55.278Z,101526.28
2019-03-25T06:02:24.003Z,101543.97
2019-03-25T06:04:52.737Z,101536.02
2019-03-25T06:07:21.416Z,101537.71
2019-03-25T06:09:50.119Z,101542.75
2019-03-25T06:12:18.771Z,101527.54
2019-03-25T06:14:47.437Z,101528.08
2019-03-25T06:17:16.211Z,101525.42
2019-03-25T06:19:44.962Z,101525.23
2019-03-25T06:22:13.712Z,101518.56
2019-03-25T06:24:42.333Z,101508.55
2019-03-25T06:27:14.269Z,101514.66
2019-03-25T06:29:43.708Z,101509.19
2019-03-25T06:32:12.500Z,101509.83
2019-03-25T06:34:41.062Z,101505.28
2019-03-25T06:37:09.754Z,101507.59
2019-03-25T06:39:38.418Z,101516.79
2019-03-25T06:42:07.195Z,101537.83
2019-03-25T06:44:35.940Z,101541.63
2019-03-25T06:47:06.253Z,101553.22
2019-03-25T06:49:35.002Z,101563.89
2019-03-25T06:52:03.926Z,101561.36
2019-03-25T06:54:32.706Z,101547.93
2019-03-25T06:57:02.007Z,101551.87
2019-03-25T06:59:30.767Z,101558.71
2019-03-25T07:01:59.452Z,101552.33
2019-03-25T07:04:28.330Z,101552.34
2019-03-25T07:06:56.979Z,101546.25
2019-03-25T07:09:25.685Z,101558.82
2019-03-25T07:11:54.425Z,101547.08
2019-03-25T07:14:23.327Z,101550.91
2019-03-25T07:16:51.966Z,101553.91
2019-03-25T07:19:20.671Z,101546.72
2019-03-25T07:21:49.312Z,101541.39
2019-03-25T07:24:18.021Z,101547.03
2019-03-25T07:26:46.741Z,101551.09
2019-03-25T07:29:15.444Z,101556.27
2019-03-25T07:31:44.314Z,101553.92
2019-03-25T07:34:12.947Z,101550.30
2019-03-25T07:36:41.577Z,101538.13
2019-03-25T07:39:10.315Z,101550.47
2019-03-25T07:41:39.004Z,101548.77
2019-03-25T07:44:08.794Z,101554.75
2019-03-25T07:46:38.039Z,101564.25
2019-03-25T07:49:06.982Z,101573.44
2019-03-25T07:51:35.655Z,101574.26
2019-03-25T07:54:05.034Z,101601.90
2019-03-25T07:56:33.826Z,101601.90
2019-03-25T07:59:02.546Z,101595.23
2019-03-25T08:01:31.846Z,101589.48
2019-03-25T08:04:01.404Z,101601.62
2019-03-25T08:06:30.066Z,101582.98
2019-03-25T08:09:03.788Z,101599.03
2019-03-25T08:11:29.148Z,101592.56
2019-03-25T08:13:57.792Z,101597.02
2019-03-25T08:16:26.488Z,101593.33
2019-03-25T08:18:55.210Z,101590.69
2019-03-25T08:21:25.122Z,101590.37
2019-03-25T08:23:54.281Z,101596.91
2019-03-25T08:26:23.021Z,101606.20
2019-03-25T08:28:51.800Z,101605.63
2019-03-25T08:31:20.518Z,101615.97
2019-03-25T08:33:49.151Z,101608.56
2019-03-25T08:36:17.838Z,101618.84
2019-03-25T08:38:46.566Z,101614.91
2019-03-25T08:41:15.285Z,101635.43
2019-03-25T08:43:43.918Z,101639.10
2019-03-25T08:46:12.690Z,101650.73
2019-03-25T08:48:41.382Z,101663.63
2019-03-25T08:51:10.159Z,101661.77
2019-03-25T08:53:38.836Z,101661.45
2019-03-25T08:56:07.559Z,101670.95
2019-03-25T08:58:36.269Z,101667.84
2019-03-25T09:01:05.006Z,101689.81
2019-03-25T09:03:33.623Z,101688.69
2019-03-25T09:06:02.339Z,101690.94
2019-03-25T09:08:30.970Z,101689.31
2019-03-25T09:10:59.708Z,101692.52
2019-03-25T09:13:28.318Z,101704.27
2019-03-25T09:15:57.096Z,101700.42
2019-03-25T09:18:25.794Z,101700.88
2019-03-25T09:20:54.483Z,101709.62
2019-03-25T09:23:23.276Z,101709.62
2019-03-25T09:25:52.082Z,101714.39
2019-03-25T09:28:24.378Z,101701.19
2019-03-25T09:30:54.076Z,101720.96
2019-03-25T09:33:22.991Z,101724.84
2019-03-25T09:35:53.564Z,101719.14
2019-03-25T09:38:22.299Z,101752.10
2019-03-25T09:40:51.092Z,101737.09
2019-03-25T09:43:19.756Z,101729.17
2019-03-25T09:45:48.470Z,101741.34
2019-03-25T09:48:17.321Z,101753.22
2019-03-25T09:50:45.941Z,101759.94
2019-03-25T09:53:14.683Z,101766.84
2019-03-25T09:55:43.341Z,101779.97
2019-03-25T09:58:12.040Z,101762.30
2019-03-25T10:00:40.756Z,101764.95
2019-03-25T10:03:09.310Z,101766.25
2019-03-25T10:05:38.129Z,101773.70
2019-03-25T10:08:06.783Z,101776.80
2019-03-25T10:10:35.443Z,101779.19
2019-03-25T10:13:05.056Z,101786.13
2019-03-25T10:15:33.710Z,101794.42
2019-03-25T10:18:02.438Z,101799.08
2019-03-25T10:20:31.175Z,101798.18
2019-03-25T10:22:59.879Z,101795.22
2019-03-25T10:25:28.605Z,101782.91
2019-03-25T10:27:57.230Z,101797.66
2019-03-25T10:30:26.353Z,101776.72
2019-03-25T10:32:54.976Z,101799.78
2019-03-25T10:35:23.708Z,101792.44
2019-03-25T10:37:52.338Z,101796.52
2019-03-25T10:40:21.103Z,101811.52
2019-03-25T10:42:49.731Z,101810.97
2019-03-25T10:45:19.172Z,101806.87
2019-03-25T10:47:47.847Z,101809.47
2019-03-25T10:50:16.544Z,101819.45
2019-03-25T10:52:45.243Z,101815.14
2019-03-25T10:55:13.984Z,101806.59
2019-03-25T10:57:42.738Z,101817.95
2019-03-25T11:00:13.244Z,101819.16
2019-03-25T11:02:42.023Z,101841.94
2019-03-25T11:05:12.344Z,101844.16
2019-03-25T11:10:11.366Z,101821.30
2019-03-25T11:12:40.094Z,101825.27
2019-03-25T11:15:10.087Z,101817.42
2019-03-25T11:17:38.820Z,101816.37
2019-03-25T11:20:10.296Z,101817.52
2019-03-25T11:22:38.988Z,101817.56
2019-03-25T11:25:09.362Z,101813.37
2019-03-25T11:27:38.164Z,101788.21
2019-03-25T11:30:09.348Z,101812.39
2019-03-25T11:32:38.018Z,101810.83
2019-03-25T11:35:09.528Z,101817.59
2019-03-25T11:37:38.240Z,101821.33
2019-03-25T11:40:09.778Z,101846.16
2019-03-25T11:42:38.497Z,101853.08
2019-03-25T11:45:09.422Z,101856.38
2019-03-25T11:47:38.131Z,101841.23
2019-03-25T11:50:09.418Z,101836.02
2019-03-25T11:52:38.124Z,101831.35
2019-03-25T11:55:07.492Z,101821.34
2019-03-25T11:57:36.167Z,101833.57
2019-03-25T12:00:07.969Z,101836.64
2019-03-25T12:02:36.698Z,101857.52
2019-03-25T12:05:07.623Z,101853.56
2019-03-25T12:07:36.364Z,101730.91
2019-03-25T12:10:07.525Z,101854.08
2019-03-25T12:12:36.204Z,101831.70
2019-03-25T12:15:07.501Z,101844.91
2019-03-25T12:17:36.248Z,101844.91
2019-03-25T12:20:07.635Z,101849.08
2019-03-25T12:22:36.380Z,101849.08
2019-03-25T12:25:07.647Z,101852.48
2019-03-25T12:27:36.254Z,101851.97
2019-03-25T12:30:07.421Z,101869.98
2019-03-25T12:32:36.092Z,101865.05
2019-03-25T12:35:07.635Z,101866.55
2019-03-25T12:37:36.340Z,101874.77
2019-03-25T12:40:07.867Z,101865.52
2019-03-25T12:42:36.784Z,101871.35
2019-03-25T12:45:07.793Z,101864.66
2019-03-25T12:47:36.494Z,101867.55
2019-03-25T12:50:07.944Z,101858.80
2019-03-25T12:52:36.569Z,101780.27
2019-03-25T12:55:07.024Z,101853.26
2019-03-25T12:57:35.754Z,101846.06
2019-03-25T13:00:07.305Z,101850.00
2019-03-25T13:02:36.208Z,101857.38
2019-03-25T13:05:06.702Z,101841.65
2019-03-25T13:07:35.415Z,101861.34
2019-03-25T13:10:07.917Z,101848.31
2019-03-25T13:12:36.663Z,101843.99
2019-03-25T13:15:07.984Z,101875.11
2019-03-25T13:17:36.706Z,101850.78
2019-03-25T13:20:06.976Z,101842.71
2019-03-25T13:22:35.741Z,101842.38
2019-03-25T13:25:05.834Z,101838.55
2019-03-25T13:27:34.573Z,101834.23
2019-03-25T13:30:03.339Z,101867.91
2019-03-25T13:32:32.084Z,101885.83
2019-03-25T13:35:00.881Z,101879.69
2019-03-25T13:37:29.791Z,101895.61
2019-03-25T13:39:58.625Z,101882.09
2019-03-25T13:42:27.266Z,101892.23
2019-03-25T13:44:57.681Z,101886.92
2019-03-25T13:47:26.823Z,101891.17
2019-03-25T13:49:55.433Z,101886.77
2019-03-25T13:52:24.289Z,101880.42
2019-03-25T13:54:52.982Z,101890.67
2019-03-25T13:57:21.664Z,101891.14
2019-03-25T13:59:50.404Z,101898.52
2019-03-25T14:02:19.097Z,101913.53
2019-03-25T14:04:47.779Z,101926.91
2019-03-25T14:07:16.576Z,101932.24
2019-03-25T14:09:45.385Z,101932.13
2019-03-25T14:12:14.027Z,101937.52
2019-03-25T14:14:42.677Z,101952.03
2019-03-25T14:17:11.375Z,101950.77
2019-03-25T14:19:40.071Z,101972.23
2019-03-25T14:22:09.076Z,101963.58
2019-03-25T14:24:37.891Z,101966.55
2019-03-25T14:27:06.598Z,101971.71
2019-03-25T14:29:35.450Z,101969.45
2019-03-25T14:32:04.194Z,101973.06
2019-03-25T14:34:32.824Z,101854.19
2019-03-25T14:37:01.632Z,101983.59
2019-03-25T14:39:32.464Z,101998.17
2019-03-25T14:42:01.227Z,101999.47
2019-03-25T14:44:29.849Z,102000.61
2019-03-25T14:46:58.586Z,102008.03
2019-03-25T14:49:27.222Z,102015.30
2019-03-25T14:51:55.852Z,102017.72
2019-03-25T14:54:24.681Z,102019.20
2019-03-25T14:56:53.299Z,102024.34
2019-03-25T14:59:22.047Z,102041.81
2019-03-25T15:01:50.924Z,102042.42
2019-03-25T15:04:19.608Z,102046.33
2019-03-25T15:06:48.276Z,102055.92
2019-03-25T15:09:16.938Z,102050.13
2019-03-25T15:11:45.631Z,102059.42
2019-03-25T15:14:14.389Z,102056.58
2019-03-25T15:16:43.099Z,102074.80
2019-03-25T15:19:11.837Z,102078.23
2019-03-25T15:21:40.554Z,102076.58
2019-03-25T15:24:09.191Z,102077.53
2019-03-25T15:26:37.970Z,102088.64
2019-03-25T15:29:06.683Z,102089.98
2019-03-25T15:31:35.357Z,102086.04
2019-03-25T15:34:05.012Z,102090.34
2019-03-25T15:36:33.869Z,102097.25
2019-03-25T15:39:02.554Z,102101.42
2019-03-25T15:41:31.303Z,102101.94
2019-03-25T15:43:59.986Z,102106.90
2019-03-25T15:46:28.841Z,102110.28
2019-03-25T15:48:57.522Z,102131.41
2019-03-25T15:51:26.360Z,102136.86
2019-03-25T15:53:54.904Z,102144.02
2019-03-25T15:56:23.602Z,102145.09
2019-03-25T15:58:52.319Z,102154.53
2019-03-25T16:01:21.048Z,102153.91
2019-03-25T16:03:49.739Z,102157.84
2019-03-25T16:06:18.413Z,102178.22
2019-03-25T16:08:47.032Z,102169.25
2019-03-25T16:11:15.736Z,102180.34
2019-03-25T16:13:44.380Z,102188.52
2019-03-25T16:16:13.165Z,102182.23
2019-03-25T16:18:43.281Z,102190.06
2019-03-25T16:21:12.092Z,102208.92
2019-03-25T16:23:40.785Z,102196.65
2019-03-25T16:26:09.426Z,102208.95
2019-03-25T16:28:38.141Z,102209.44
2019-03-25T16:31:06.908Z,102208.20
2019-03-25T16:33:35.808Z,102213.61
2019-03-25T16:36:05.273Z,102216.73
2019-03-25T16:38:34.798Z,102150.39
2019-03-25T16:41:06.651Z,102234.44
2019-03-25T16:43:35.838Z,102230.81
2019-03-25T16:46:04.891Z,102229.77
2019-03-25T16:48:33.653Z,102225.83
2019-03-25T16:51:02.293Z,102239.09
2019-03-25T16:53:31.035Z,102236.84
2019-03-25T16:56:00.327Z,102249.47
2019-03-25T16:58:29.256Z,102250.73
2019-03-25T17:01:09.126Z,102260.86
2019-03-25T17:03:28.482Z,102270.31
2019-03-25T17:05:58.388Z,102281.39
2019-03-25T17:08:29.615Z,102274.74
2019-03-25T17:11:00.014Z,102284.82
2019-03-25T17:13:28.770Z,102287.59
2019-03-25T17:15:57.478Z,102285.20
2019-03-25T17:18:26.200Z,102295.14
2019-03-25T17:20:54.970Z,102291.53
2019-03-25T17:23:25.564Z,102287.68
2019-03-25T17:25:54.595Z,102293.19
2019-03-25T17:28:23.917Z,102294.58
2019-03-25T17:30:52.734Z,102302.12
2019-03-25T17:33:21.360Z,102310.63
2019-03-25T17:35:50.007Z,102318.79
2019-03-25T17:38:18.847Z,102323.96
2019-03-25T17:40:47.635Z,102328.84
2019-03-25T17:43:16.497Z,102330.48
2019-03-25T17:45:45.248Z,102328.80
2019-03-25T17:48:13.988Z,102335.64
2019-03-25T17:50:42.759Z,102339.43
2019-03-25T17:53:12.082Z,102344.02
2019-03-25T17:55:40.881Z,102340.09
2019-03-25T17:58:12.977Z,102347.29
2019-03-25T18:00:49.895Z,102352.17
2019-03-25T18:03:18.462Z,102355.98
2019-03-25T18:05:47.256Z,102360.02
2019-03-25T18:08:16.080Z,102365.52
2019-03-25T18:10:44.723Z,102369.05
2019-03-25T18:13:21.962Z,102379.21
2019-03-25T18:15:43.831Z,102389.15
2019-03-25T18:18:12.516Z,102391.05
2019-03-25T18:20:41.218Z,102398.92
2019-03-25T18:23:09.982Z,102399.92
2019-03-25T18:25:38.682Z,102406.72
2019-03-25T18:28:08.514Z,102404.52
2019-03-25T18:30:39.803Z,102406.61
2019-03-25T18:33:09.779Z,102412.31
2019-03-25T18:35:38.456Z,102415.96
2019-03-25T18:38:07.249Z,102417.81
2019-03-25T18:40:36.655Z,102424.22
2019-03-25T18:43:05.469Z,102436.34
2019-03-25T18:45:34.207Z,102437.72
2019-03-25T18:48:02.930Z,102442.71
2019-03-25T18:50:31.649Z,102438.85
2019-03-25T18:53:00.415Z,102452.77
2019-03-25T18:55:29.140Z,102451.36
2019-03-25T18:57:57.837Z,102463.14
2019-03-25T19:00:34.854Z,102469.17
2019-03-25T19:03:05.402Z,102470.07
2019-03-25T19:05:35.193Z,102474.83
2019-03-25T19:08:05.566Z,102481.87
2019-03-25T19:10:34.360Z,102482.70
2019-03-25T19:13:03.068Z,102482.30
2019-03-25T19:15:31.765Z,102490.13
2019-03-25T19:18:00.613Z,102484.61
2019-03-25T19:20:29.330Z,102488.40
2019-03-25T19:22:58.103Z,102486.98
2019-03-25T19:25:26.908Z,102488.53
2019-03-25T19:27:55.519Z,102487.16
2019-03-25T19:30:24.247Z,102491.83
2019-03-25T19:32:53.006Z,102499.69
2019-03-25T19:35:21.794Z,102503.50
2019-03-25T19:37:50.778Z,102511.73
2019-03-25T19:40:19.543Z,102520.94
2019-03-25T19:42:48.278Z,102518.75
2019-03-25T19:45:17.620Z,102525.01
2019-03-25T19:47:46.375Z,102531.81
2019-03-25T19:50:15.955Z,102532.88
2019-03-25T19:52:44.587Z,102542.02
2019-03-25T19:55:13.434Z,102542.22
2019-03-25T19:57:42.290Z,102553.38
2019-03-25T20:00:15.036Z,102561.47
2019-03-25T20:02:44.737Z,102573.14
2019-03-25T20:05:13.561Z,102569.50
2019-03-25T20:07:42.363Z,102569.27
2019-03-25T20:10:14.126Z,102572.77
2019-03-25T20:12:43.807Z,102576.19
2019-03-25T20:15:12.696Z,102577.06
2019-03-25T20:17:41.368Z,102575.98
2019-03-25T20:20:10.264Z,102587.91
2019-03-25T20:22:39.067Z,102595.27
2019-03-25T20:25:07.800Z,102604.44
2019-03-25T20:27:36.562Z,102609.03
2019-03-25T20:30:11.032Z,102612.23
2019-03-25T20:32:39.934Z,102620.41
2019-03-25T20:35:08.860Z,102614.22
2019-03-25T20:37:37.602Z,102617.05
2019-03-25T20:40:09.061Z,102625.45
2019-03-25T20:42:38.584Z,102623.77
2019-03-25T20:45:09.076Z,102624.98
2019-03-25T20:47:37.834Z,102630.05
2019-03-25T20:50:07.081Z,102632.17
2019-03-25T20:52:35.844Z,102640.37
2019-03-25T20:55:31.688Z,102655.88
2019-03-25T20:58:00.537Z,102655.88
2019-03-25T21:00:58.842Z,102650.36
2019-03-25T21:03:28.405Z,102652.97
2019-03-25T21:05:57.108Z,102663.75
2019-03-25T21:08:25.913Z,102668.88
2019-03-25T21:10:54.835Z,102674.48
2019-03-25T21:13:23.694Z,102688.67
2019-03-25T21:15:52.685Z,102679.18
2019-03-25T21:18:37.992Z,102677.05
2019-03-25T21:21:07.797Z,102676.64
2019-03-25T21:23:37.415Z,102677.58
2019-03-25T21:26:06.211Z,102675.26
2019-03-25T21:28:41.543Z,102686.82
2019-03-25T21:31:14.349Z,102681.34
2019-03-25T21:33:43.181Z,102686.63
2019-03-25T21:36:12.079Z,102687.63
2019-03-25T21:38:40.981Z,102687.65
2019-03-25T21:41:10.246Z,102684.98
2019-03-25T21:43:39.022Z,102693.53
2019-03-25T21:46:07.844Z,102687.52
2019-03-25T21:48:39.931Z,102684.50
2019-03-25T21:51:08.946Z,102685.20
2019-03-25T21:53:37.656Z,102689.43
2019-03-25T21:56:08.127Z,102656.55
2019-03-25T21:58:45.257Z,102687.34
2019-03-25T22:01:14.027Z,102697.91
2019-03-25T22:03:43.834Z,102703.62
2019-03-25T22:06:18.346Z,102709.67
2019-03-25T22:08:47.067Z,102712.51
2019-03-25T22:11:15.856Z,102718.21
2019-03-25T22:13:44.569Z,102723.77
2019-03-25T22:16:15.627Z,102718.55
2019-03-25T22:18:44.437Z,102718.87
2019-03-25T22:21:13.162Z,102717.84
2019-03-25T22:23:41.950Z,102716.84
2019-03-25T22:26:10.815Z,102724.58
2019-03-25T22:28:39.437Z,102721.05
2019-03-25T22:31:08.165Z,102722.05
2019-03-25T22:33:36.925Z,102733.80
2019-03-25T22:36:05.721Z,102758.92
2019-03-25T22:38:34.447Z,102737.82
2019-03-25T22:41:03.073Z,102743.53
2019-03-25T22:43:34.744Z,102749.58
2019-03-25T22:46:04.462Z,102751.38
2019-03-25T22:48:33.952Z,102752.23
2019-03-25T22:51:03.685Z,102754.25
2019-03-25T22:53:33.125Z,102752.58
2019-03-25T22:56:02.980Z,102748.20
2019-03-25T22:58:32.872Z,102749.20
2019-03-25T23:01:04.259Z,102749.73
2019-03-25T23:03:39.005Z,102748.08
2019-03-25T23:06:05.353Z,102751.93
2019-03-25T23:08:34.967Z,102757.95
2019-03-25T23:11:04.625Z,102755.77
2019-03-25T23:13:34.592Z,102757.77
2019-03-25T23:16:04.097Z,102760.61
2019-03-25T23:18:33.634Z,102757.09
2019-03-25T23:21:03.275Z,102758.09
2019-03-25T23:23:32.786Z,102759.43
2019-03-25T23:26:02.417Z,102760.27
2019-03-25T23:28:32.101Z,102761.08
2019-03-25T23:31:01.556Z,102756.06
2019-03-25T23:33:31.048Z,102753.72
2019-03-25T23:36:00.856Z,102759.74
2019-03-25T23:38:30.415Z,102757.22
2019-03-25T23:40:59.046Z,102758.91
2019-03-25T23:43:27.936Z,102760.70
2019-03-25T23:45:56.576Z,102760.70
2019-03-25T23:48:25.124Z,102758.67
2019-03-25T23:50:53.869Z,102753.77
2019-03-25T23:53:22.521Z,102756.78
2019-03-25T23:55:51.218Z,102753.91
2019-03-25T23:58:19.921Z,102763.30
